Time;durP1;ratioP1;P1;durP2;ratioP2;P2;SDS_P1;SDS_P2;PMS_P1;PMS_P2;Temp;Humidity;BMP_temperature;BMP_pressure;BME280_temperature;BME280_humidity;BME280_pressure;Samples;Min_cycle;Max_cycle;Signal;HPM_P1;HPM_P2
2022/04/02 00:01:59;;;;;;;1.27;1.10;;;;;;;19.97;31.13;101713.03;5001672;28;20099;-73
2022/04/02 00:04:24;;;;;;;2.20;1.48;;;;;;;19.95;31.05;101712.38;5023168;28;20041;-72
2022/04/02 00:06:50;;;;;;;1.20;1.02;;;;;;;19.96;31.06;101715.84;5000265;28;20737;-71
2022/04/02 00:09:16;;;;;;;1.33;1.10;;;;;;;19.88;31.20;101700.75;5025217;28;20336;-72
2022/04/02 00:11:42;;;;;;;2.53;1.52;;;;;;;19.93;30.88;101714.34;5003600;28;20067;-73
2022/04/02 00:14:07;;;;;;;1.40;1.10;;;;;;;19.86;31.19;101705.38;5024183;28;20049;-74
2022/04/02 00:16:34;;;;;;;2.28;1.48;;;;;;;19.79;31.15;101693.81;5012817;28;20048;-74
2022/04/02 00:19:00;;;;;;;2.00;1.35;;;;;;;19.87;30.85;101714.97;4974723;28;20037;-74
2022/04/02 00:21:26;;;;;;;1.27;1.15;;;;;;;19.66;31.07;101681.00;5057860;28;20053;-72
2022/04/02 00:23:52;;;;;;;1.27;1.17;;;;;;;19.80;31.24;101719.25;5004593;28;20080;-73
2022/04/02 00:26:22;;;;;;;1.38;1.25;;;;;;;19.72;31.12;101695.41;5021789;28;20037;-73
2022/04/02 00:28:49;;;;;;;1.63;1.13;;;;;;;19.72;31.22;101704.16;4997012;28;20049;-72
2022/04/02 00:31:16;;;;;;;1.25;1.13;;;;;;;19.76;31.27;101707.34;5033327;28;20033;-73
2022/04/02 00:33:45;;;;;;;2.45;1.20;;;;;;;19.68;31.21;101697.53;4990841;28;20037;-73
2022/04/02 00:36:11;;;;;;;1.80;1.00;;;;;;;19.76;31.10;101715.25;5024422;28;20033;-72
2022/04/02 00:38:39;;;;;;;1.52;1.20;;;;;;;19.55;31.34;101683.91;5006212;28;20668;-73
2022/04/02 00:41:05;;;;;;;1.00;1.00;;;;;;;19.70;31.24;101715.88;4991367;28;20109;-72
2022/04/02 00:43:37;;;;;;;1.55;1.30;;;;;;;19.71;31.04;101718.34;5018059;28;20047;-73
2022/04/02 00:46:08;;;;;;;1.70;1.50;;;;;;;19.69;31.25;101722.13;5024383;28;20036;-73
2022/04/02 00:48:35;;;;;;;1.80;1.42;;;;;;;19.66;31.08;101706.59;5014457;28;20037;-72
2022/04/02 00:51:04;;;;;;;1.65;1.20;;;;;;;19.68;31.24;101718.66;5004091;28;20045;-72
2022/04/02 00:53:33;;;;;;;1.95;1.50;;;;;;;19.57;31.33;101701.28;5027310;28;20029;-73
2022/04/02 00:55:59;;;;;;;1.15;1.05;;;;;;;19.66;31.23;101719.81;5031431;28;20083;-72
2022/04/02 00:58:26;;;;;;;1.23;1.10;;;;;;;19.59;31.34;101712.53;5028064;28;20037;-73
2022/04/02 01:00:52;;;;;;;1.25;1.05;;;;;;;19.54;31.38;101717.44;4998111;28;20037;-73
2022/04/02 01:03:21;;;;;;;1.92;1.50;;;;;;;19.61;31.32;101730.88;5030789;28;20740;-73
2022/04/02 01:05:49;;;;;;;1.40;1.30;;;;;;;19.57;31.26;101724.25;4978353;28;20649;-73
2022/04/02 01:08:16;;;;;;;1.60;1.20;;;;;;;19.44;31.46;101715.88;5029833;28;20118;-73
2022/04/02 01:10:44;;;;;;;1.50;1.00;;;;;;;19.54;31.54;101732.44;4994987;28;20099;-72
2022/04/02 01:13:10;;;;;;;1.95;1.42;;;;;;;19.48;31.42;101727.78;5013954;28;20036;-72
2022/04/02 01:15:37;;;;;;;1.95;1.75;;;;;;;19.53;31.39;101731.59;5010980;28;20037;-72
2022/04/02 01:18:06;;;;;;;3.08;1.48;;;;;;;19.52;31.40;101734.41;5039204;28;20071;-72
2022/04/02 01:20:36;;;;;;;1.42;1.15;;;;;;;19.45;31.45;101728.91;5013090;28;20037;-72
2022/04/02 01:23:02;;;;;;;1.25;1.00;;;;;;;19.45;31.54;101731.56;4976277;28;20548;-72
2022/04/02 01:25:32;;;;;;;1.33;1.23;;;;;;;19.44;31.51;101729.06;5029437;28;20495;-73
2022/04/02 01:28:03;;;;;;;3.05;1.45;;;;;;;19.45;31.56;101734.19;5005305;28;20140;-73
2022/04/02 01:30:31;;;;;;;2.00;1.48;;;;;;;19.44;31.39;101732.53;5027337;28;20136;-73
2022/04/02 01:32:58;;;;;;;1.95;1.65;;;;;;;19.43;31.57;101732.69;5001581;28;20896;-73
2022/04/02 01:35:25;;;;;;;0.82;0.82;;;;;;;19.40;31.42;101736.47;5026199;28;20029;-72
2022/04/02 01:38:05;;;;;;;1.65;1.17;;;;;;;19.38;31.49;101734.97;4986926;28;20622;-73
2022/04/02 01:40:32;;;;;;;1.88;1.33;;;;;;;19.41;31.50;101735.50;5017024;28;20029;-73
2022/04/02 01:42:57;;;;;;;1.63;1.40;;;;;;;19.36;31.58;101729.84;5003192;28;20253;-73
2022/04/02 01:45:24;;;;;;;1.33;1.15;;;;;;;19.38;31.58;101732.31;5026221;28;20068;-73
2022/04/02 01:47:54;;;;;;;1.83;1.30;;;;;;;19.37;31.42;101731.50;5001702;28;20861;-73
2022/04/02 01:50:25;;;;;;;1.95;1.13;;;;;;;19.35;31.63;101730.00;5026177;28;20522;-73
2022/04/02 01:52:53;;;;;;;1.02;1.00;;;;;;;19.34;31.55;101731.81;5001363;28;20579;-73
2022/04/02 01:55:19;;;;;;;1.65;1.40;;;;;;;19.27;31.61;101734.25;5019163;28;20034;-73
2022/04/02 01:57:52;;;;;;;1.92;1.02;;;;;;;19.20;31.67;101719.16;5043374;28;20088;-73
2022/04/02 02:00:26;;;;;;;1.95;1.33;;;;;;;19.29;31.49;101737.56;5003402;28;20517;-73
2022/04/02 02:02:52;;;;;;;1.38;1.10;;;;;;;19.30;31.84;101738.38;5030257;28;20041;-73
2022/04/02 02:05:18;;;;;;;1.05;0.80;;;;;;;19.30;31.47;101741.03;5003521;28;20033;-73
2022/04/02 02:07:50;;;;;;;1.38;1.27;;;;;;;19.16;31.76;101728.38;5030818;28;20041;-73
2022/04/02 02:10:20;;;;;;;2.13;1.50;;;;;;;19.12;31.64;101719.09;4987676;28;20124;-73
2022/04/02 02:13:01;;;;;;;1.85;1.17;;;;;;;19.15;31.69;101732.81;5026422;28;20801;-73
2022/04/02 02:15:34;;;;;;;1.83;1.50;;;;;;;19.25;31.65;101741.50;5025961;28;20045;-73
2022/04/02 02:18:03;;;;;;;1.88;1.23;;;;;;;19.11;31.80;101728.84;5023506;28;20504;-73
2022/04/02 02:20:29;;;;;;;2.03;1.48;;;;;;;19.15;31.75;101729.34;5015854;28;20116;-73
2022/04/02 02:22:55;;;;;;;1.58;1.33;;;;;;;19.16;31.71;101738.94;4999050;28;20053;-73
2022/04/02 02:25:21;;;;;;;1.27;1.17;;;;;;;19.15;31.76;101734.63;5027325;28;20045;-73
2022/04/02 02:27:52;;;;;;;1.70;1.13;;;;;;;19.11;31.61;101744.69;4998526;28;20834;-73
2022/04/02 02:30:20;;;;;;;1.40;1.20;;;;;;;19.14;31.78;101747.00;5030949;28;20038;-73
2022/04/02 02:32:47;;;;;;;1.60;1.45;;;;;;;19.10;31.81;101737.75;5002727;28;20288;-73
2022/04/02 02:38:06;;;;;;;1.40;1.15;;;;;;;19.11;31.75;101746.47;5013315;28;20042;-73
2022/04/02 02:40:39;;;;;;;1.23;1.00;;;;;;;19.06;31.61;101741.66;5031762;28;20191;-73
2022/04/02 02:43:07;;;;;;;1.70;1.38;;;;;;;19.06;31.84;101754.03;4990243;28;20048;-73
2022/04/02 02:45:35;;;;;;;1.08;0.98;;;;;;;19.00;31.74;101737.81;5026028;28;20700;-74
2022/04/02 02:48:03;;;;;;;1.17;0.90;;;;;;;19.09;31.46;101757.19;5000241;28;20041;-73
2022/04/02 02:50:39;;;;;;;1.35;1.25;;;;;;;18.95;31.65;101737.44;5027761;28;20043;-73
2022/04/02 02:53:05;;;;;;;2.60;1.30;;;;;;;18.99;31.70;101745.88;4999488;28;20033;-73
2022/04/02 02:55:31;;;;;;;2.20;1.35;;;;;;;19.00;31.69;101752.81;4993730;28;20041;-73
2022/04/02 02:58:03;;;;;;;0.95;0.95;;;;;;;18.97;31.84;101748.69;5000826;28;20132;-73
2022/04/02 03:00:29;;;;;;;1.77;1.40;;;;;;;18.96;31.65;101751.47;5019363;28;20471;-73
2022/04/02 03:02:58;;;;;;;2.13;1.30;;;;;;;18.96;31.89;101754.09;5015206;28;20084;-73
2022/04/02 03:05:28;;;;;;;1.38;1.10;;;;;;;18.95;31.76;101755.09;4982717;28;20483;-73
2022/04/02 03:07:58;;;;;;;1.60;1.33;;;;;;;18.99;31.67;101759.91;5029280;28;20495;-73
2022/04/02 03:10:37;;;;;;;1.30;1.20;;;;;;;18.95;31.85;101760.38;5013734;28;20399;-73
2022/04/02 03:13:04;;;;;;;1.92;1.48;;;;;;;18.98;31.91;101762.69;5025687;28;20080;-73
2022/04/02 03:15:32;;;;;;;2.03;1.42;;;;;;;18.86;31.78;101746.28;5001352;28;20033;-73
2022/04/02 03:18:06;;;;;;;1.95;1.23;;;;;;;18.87;31.85;101752.38;5025412;28;20498;-73
2022/04/02 03:20:34;;;;;;;2.03;1.30;;;;;;;18.90;31.95;101767.91;5000813;28;20658;-73
2022/04/02 03:23:00;;;;;;;1.10;0.95;;;;;;;18.92;31.78;101772.06;5025939;28;20041;-73
2022/04/02 03:25:27;;;;;;;1.02;0.95;;;;;;;18.81;31.70;101755.63;4996344;28;20029;-73
2022/04/02 03:27:53;;;;;;;1.38;1.00;;;;;;;18.85;31.84;101768.38;5009781;28;20578;-74
2022/04/02 03:30:22;;;;;;;1.65;1.33;;;;;;;18.80;31.69;101764.50;5009765;28;20040;-73
2022/04/02 03:32:50;;;;;;;1.30;1.00;;;;;;;18.85;31.63;101776.28;5025316;28;20043;-73
2022/04/02 03:35:17;;;;;;;2.05;0.95;;;;;;;18.87;31.73;101773.50;5026263;28;20060;-73
2022/04/02 03:37:47;;;;;;;1.40;1.30;;;;;;;18.80;31.89;101769.78;5005205;28;20554;-73
2022/04/02 03:40:15;;;;;;;2.20;1.35;;;;;;;18.82;32.01;101784.47;5026094;28;20039;-73
2022/04/02 03:42:46;;;;;;;1.00;0.93;;;;;;;18.82;31.99;101778.38;4994388;28;20032;-73
2022/04/02 03:45:17;;;;;;;1.45;1.20;;;;;;;18.84;31.83;101779.06;5038649;28;20041;-73
2022/04/02 03:47:47;;;;;;;1.45;1.27;;;;;;;18.81;31.93;101774.91;5018345;28;20037;-73
2022/04/02 03:50:13;;;;;;;1.05;1.00;;;;;;;18.85;31.92;101776.28;5025436;28;20037;-73
2022/04/02 03:52:45;;;;;;;1.48;1.05;;;;;;;18.82;31.77;101781.03;4999758;28;20566;-73
2022/04/02 03:55:15;;;;;;;2.03;1.00;;;;;;;18.79;31.79;101771.59;5042581;28;20052;-73
2022/04/02 03:57:47;;;;;;;1.20;1.05;;;;;;;18.85;31.81;101778.06;5014873;28;20049;-73
2022/04/02 04:00:13;;;;;;;1.15;0.98;;;;;;;18.75;31.84;101764.97;5042909;28;20040;-73
2022/04/02 04:02:42;;;;;;;1.37;1.10;;;;;;;18.77;31.79;101775.38;4987842;28;20053;-73
2022/04/02 04:05:13;;;;;;;1.50;1.40;;;;;;;18.79;32.05;101782.16;5025602;28;20036;-73
2022/04/02 04:07:40;;;;;;;1.65;1.20;;;;;;;18.69;32.09;101770.84;5003945;28;20125;-73
2022/04/02 04:10:07;;;;;;;1.25;1.00;;;;;;;18.81;32.11;101793.38;5025039;28;20040;-73
2022/04/02 04:12:34;;;;;;;1.88;1.08;;;;;;;18.76;32.03;101782.47;5014900;28;20661;-73
2022/04/02 04:15:04;;;;;;;1.48;1.25;;;;;;;18.79;31.80;101781.31;5031014;28;20041;-73
2022/04/02 04:17:29;;;;;;;2.63;1.40;;;;;;;18.78;31.66;101745.38;5023032;28;20645;-73
2022/04/02 04:19:55;;;;;;;1.08;1.05;;;;;;;19.49;31.37;101793.66;5001848;28;20052;-73
2022/04/02 04:22:21;;;;;;;1.13;1.00;;;;;;;20.29;30.35;101799.63;5027629;28;20037;-73
2022/04/02 04:24:48;;;;;;;1.30;1.20;;;;;;;20.90;29.65;101803.78;4987617;28;20045;-73
2022/04/02 04:27:15;;;;;;;1.30;1.20;;;;;;;21.28;29.00;101797.03;5042899;28;20044;-73
2022/04/02 04:29:44;;;;;;;0.90;0.90;;;;;;;21.68;28.43;101808.59;5017059;28;20524;-73
2022/04/02 04:32:10;;;;;;;1.25;0.90;;;;;;;21.94;28.15;101805.75;5026499;28;20138;-73
2022/04/02 04:34:37;;;;;;;1.35;1.25;;;;;;;21.97;28.45;101800.09;4990903;28;20056;-73
2022/04/02 04:37:03;;;;;;;2.15;1.42;;;;;;;22.14;28.03;101806.22;5029488;28;20045;-73
2022/04/02 04:39:29;;;;;;;0.98;0.90;;;;;;;22.28;27.96;101805.50;5021905;28;20052;-73
2022/04/02 04:41:57;;;;;;;3.13;1.20;;;;;;;22.29;27.67;101794.72;4999405;28;20136;-73
2022/04/02 04:44:28;;;;;;;2.15;1.10;;;;;;;22.23;27.92;101790.06;5019986;28;20067;-73
2022/04/02 04:46:54;;;;;;;1.45;1.00;;;;;;;22.35;27.82;101813.59;4998187;28;20124;-73
2022/04/02 04:49:20;;;;;;;1.17;1.00;;;;;;;22.21;27.98;101807.16;5011662;28;20038;-73
2022/04/02 04:51:55;;;;;;;2.17;1.13;;;;;;;22.23;27.89;101816.59;4984955;28;20025;-73
2022/04/02 04:54:21;;;;;;;1.10;0.95;;;;;;;22.03;28.34;101823.28;5030145;28;20128;-73
2022/04/02 04:56:47;;;;;;;1.95;1.20;;;;;;;21.85;28.50;101827.97;4985609;28;20041;-74
2022/04/02 04:59:17;;;;;;;1.95;1.05;;;;;;;21.59;28.95;101818.41;5030421;28;20136;-75
2022/04/02 05:01:43;;;;;;;1.25;0.90;;;;;;;21.56;29.13;101826.69;5001998;28;20045;-74
2022/04/02 05:04:09;;;;;;;2.03;1.08;;;;;;;21.86;28.79;101840.22;5032112;28;20045;-74
2022/04/02 05:06:41;;;;;;;1.98;0.88;;;;;;;22.07;28.54;101834.41;4991902;28;20132;-74
2022/04/02 05:09:08;;;;;;;0.85;0.85;;;;;;;22.18;28.17;101847.31;5044091;28;20107;-74
2022/04/02 05:11:39;;;;;;;0.95;0.93;;;;;;;22.27;28.32;101847.13;5023718;28;20091;-74
2022/04/02 05:14:08;;;;;;;2.22;1.10;;;;;;;22.31;28.18;101834.34;5024092;28;20221;-74
2022/04/02 05:16:35;;;;;;;0.80;0.80;;;;;;;22.30;28.33;101841.47;5008369;28;20061;-74
2022/04/02 05:19:06;;;;;;;1.90;0.82;;;;;;;22.02;28.48;101813.66;5013854;28;20041;-74
2022/04/02 05:21:34;;;;;;;1.07;1.00;;;;;;;21.98;28.54;101836.22;5013686;28;20032;-74
2022/04/02 05:23:59;;;;;;;0.85;0.85;;;;;;;21.90;28.64;101842.38;4989471;28;20056;-74
2022/04/02 05:26:25;;;;;;;1.38;0.82;;;;;;;21.77;28.91;101849.19;5027050;28;20040;-74
2022/04/02 05:28:57;;;;;;;1.35;1.23;;;;;;;21.63;29.27;101850.69;5004882;28;20177;-74
2022/04/02 05:31:23;;;;;;;2.10;1.00;;;;;;;21.39;29.63;101848.88;5048220;28;20433;-74
2022/04/02 05:33:48;;;;;;;1.38;0.90;;;;;;;21.22;29.65;101850.66;5004421;28;20053;-74
2022/04/02 05:36:15;;;;;;;1.23;1.00;;;;;;;21.02;30.02;101855.44;5027764;28;20103;-74
2022/04/02 05:38:40;;;;;;;1.83;0.90;;;;;;;21.13;29.91;101855.09;4987797;28;20046;-74
2022/04/02 05:41:06;;;;;;;1.90;1.13;;;;;;;21.55;29.38;101867.44;5025708;28;20048;-71
2022/04/02 05:43:32;;;;;;;2.03;1.13;;;;;;;22.08;28.68;101866.06;5019234;28;20094;-74
2022/04/02 05:45:58;;;;;;;0.95;0.82;;;;;;;22.41;27.87;101858.81;5027347;28;20041;-74
2022/04/02 05:48:24;;;;;;;1.77;1.15;;;;;;;22.52;27.68;101866.41;5023059;28;20041;-75
2022/04/02 05:50:50;;;;;;;1.08;0.90;;;;;;;22.43;28.11;101862.13;5008892;28;20036;-74
2022/04/02 05:53:16;;;;;;;1.23;1.13;;;;;;;22.28;28.24;101866.53;5028762;28;20618;-74
2022/04/02 05:55:42;;;;;;;1.60;1.20;;;;;;;21.99;28.21;101851.13;4991114;28;20094;-75
2022/04/02 05:58:10;;;;;;;3.17;0.90;;;;;;;21.96;28.36;101868.22;5028036;28;20041;-74
2022/04/02 06:00:36;;;;;;;2.80;1.10;;;;;;;21.91;28.63;101880.34;5003784;28;20147;-74
2022/04/02 06:03:03;;;;;;;1.10;0.90;;;;;;;21.80;28.87;101885.97;5028261;28;20484;-74
2022/04/02 06:05:29;;;;;;;2.28;1.15;;;;;;;21.63;29.16;101888.63;5008479;28;20041;-74
2022/04/02 06:07:54;;;;;;;2.58;1.10;;;;;;;21.37;29.45;101883.50;5028167;28;20044;-74
2022/04/02 06:10:20;;;;;;;1.70;0.90;;;;;;;21.28;29.55;101894.25;4991582;28;20045;-74
2022/04/02 06:12:47;;;;;;;1.02;0.93;;;;;;;21.05;29.95;101886.06;5028589;28;20070;-75
2022/04/02 06:15:12;;;;;;;1.38;1.00;;;;;;;21.04;30.14;101887.88;5030402;28;20116;-74
2022/04/02 06:17:38;;;;;;;0.82;0.60;;;;;;;20.99;29.96;101900.75;5005689;28;20511;-74
2022/04/02 06:20:07;;;;;;;1.10;1.00;;;;;;;20.95;30.14;101890.66;5028070;28;20055;-74
2022/04/02 06:22:34;;;;;;;1.27;0.70;;;;;;;21.08;30.00;101904.28;5005664;28;20060;-74
2022/04/02 06:25:00;;;;;;;0.85;0.82;;;;;;;21.02;29.93;101907.56;5026212;28;20044;-74
2022/04/02 06:27:25;;;;;;;2.00;1.20;;;;;;;21.12;29.90;101905.59;4987314;28;20045;-74
2022/04/02 06:29:51;;;;;;;1.40;1.15;;;;;;;21.54;29.38;101904.69;5028986;28;20063;-74
2022/04/02 06:32:17;;;;;;;1.63;1.10;;;;;;;21.85;28.64;101908.34;5007234;28;20045;-75
2022/04/02 06:34:44;;;;;;;1.70;1.20;;;;;;;21.90;28.62;101900.72;5032806;28;20115;-74
2022/04/02 06:37:10;;;;;;;1.38;1.05;;;;;;;21.82;28.65;101906.03;5004243;28;20037;-74
2022/04/02 06:39:36;;;;;;;1.80;1.13;;;;;;;21.65;28.76;101901.72;5030204;28;20194;-74
2022/04/02 06:42:02;;;;;;;1.20;1.08;;;;;;;21.61;28.79;101919.78;5002303;28;20136;-74
2022/04/02 06:44:35;;;;;;;2.55;0.90;;;;;;;21.42;29.17;101920.94;5046267;28;20310;-74
2022/04/02 06:47:01;;;;;;;1.33;0.98;;;;;;;21.27;29.49;101919.91;5025218;28;20202;-75
2022/04/02 06:49:26;;;;;;;1.60;0.95;;;;;;;21.19;29.60;101916.38;4998535;28;20041;-74
2022/04/02 06:51:52;;;;;;;1.63;0.90;;;;;;;21.10;29.79;101920.81;5027078;28;20067;-75
2022/04/02 06:54:18;;;;;;;1.10;1.00;;;;;;;21.03;29.86;101923.31;5000487;28;20040;-74
2022/04/02 06:56:45;;;;;;;1.38;1.15;;;;;;;20.91;30.00;101915.81;5026220;28;20045;-74
2022/04/02 06:59:11;;;;;;;0.80;0.75;;;;;;;20.91;30.05;101921.94;4991723;28;20511;-73
2022/04/02 07:01:38;;;;;;;1.02;0.88;;;;;;;20.87;30.04;101930.34;5027466;28;20029;-73
2022/04/02 07:04:03;;;;;;;1.85;1.10;;;;;;;20.77;30.23;101920.72;5001274;28;20094;-73
2022/04/02 07:06:29;;;;;;;2.15;1.00;;;;;;;20.79;30.19;101925.84;5032522;28;20037;-73
2022/04/02 07:08:55;;;;;;;1.05;0.90;;;;;;;20.95;30.05;101933.03;5002360;28;20387;-73
2022/04/02 07:11:21;;;;;;;1.95;0.88;;;;;;;21.12;29.63;101924.97;5027593;28;20029;-73
2022/04/02 07:13:46;;;;;;;1.15;0.90;;;;;;;21.56;29.04;101934.53;5000336;28;20719;-73
2022/04/02 07:16:12;;;;;;;2.20;1.10;;;;;;;22.06;28.49;101938.84;5014323;28;20044;-73
2022/04/02 07:18:42;;;;;;;0.90;0.88;;;;;;;22.20;28.12;101943.47;5024451;28;20033;-73
2022/04/02 07:21:11;;;;;;;1.70;1.23;;;;;;;22.17;28.44;101944.63;5000605;28;20064;-73
2022/04/02 07:23:40;;;;;;;1.10;1.00;;;;;;;22.06;28.61;101952.94;5033723;28;20049;-72
2022/04/02 07:26:06;;;;;;;1.00;0.82;;;;;;;21.97;28.88;101956.56;5003697;28;20652;-72
2022/04/02 07:28:32;;;;;;;6.22;1.85;;;;;;;21.81;29.22;101951.25;5026624;28;20037;-72
2022/04/02 07:30:58;;;;;;;1.75;1.10;;;;;;;21.75;29.81;101950.13;4997881;28;20144;-73
2022/04/02 07:33:25;;;;;;;2.80;1.15;;;;;;;21.63;29.76;101960.19;5017746;28;20048;-73
2022/04/02 07:36:08;;;;;;;2.42;1.10;;;;;;;21.36;30.10;101949.88;5028583;28;20042;-73
2022/04/02 07:38:46;;;;;;;1.00;0.90;;;;;;;21.33;30.17;101974.06;5003916;28;20061;-73
2022/04/02 07:41:30;;;;;;;0.77;0.75;;;;;;;21.21;30.40;101975.34;5027587;28;20873;-72
2022/04/02 07:44:15;;;;;;;2.60;1.00;;;;;;;20.98;30.35;101959.19;5022645;28;20048;-72
2022/04/02 07:46:43;;;;;;;0.95;0.70;;;;;;;21.03;30.54;101973.63;5004601;28;20064;-72
2022/04/02 07:49:12;;;;;;;1.67;1.10;;;;;;;21.06;30.45;101989.19;5027425;28;20045;-72
2022/04/02 07:51:39;;;;;;;1.88;1.33;;;;;;;21.00;30.56;101984.50;5033824;28;20076;-72
2022/04/02 07:54:09;;;;;;;1.15;0.90;;;;;;;20.95;30.54;101984.16;4986943;28;20064;-73
2022/04/02 07:56:48;;;;;;;1.25;0.82;;;;;;;20.97;30.80;101991.94;5032508;28;20036;-73
2022/04/02 07:59:29;;;;;;;1.27;1.13;;;;;;;20.96;30.92;101995.59;4999956;28;20458;-72
2022/04/02 08:01:56;;;;;;;2.10;1.25;;;;;;;20.95;30.63;101997.41;5027359;28;20057;-72
2022/04/02 08:04:24;;;;;;;1.02;0.80;;;;;;;20.90;30.78;101986.47;4985922;28;20106;-72
2022/04/02 08:06:52;;;;;;;1.00;0.90;;;;;;;20.97;30.48;101989.28;5025690;28;20041;-72
2022/04/02 08:09:25;;;;;;;1.60;1.02;;;;;;;21.44;30.00;102000.25;4998559;28;20049;-72
2022/04/02 08:11:52;;;;;;;0.90;0.90;;;;;;;21.80;29.31;102000.00;5031546;28;20103;-71
2022/04/02 08:14:18;;;;;;;1.35;1.00;;;;;;;21.77;29.40;101997.66;5003774;28;20135;-71
2022/04/02 08:16:44;;;;;;;0.73;0.73;;;;;;;21.65;29.75;101997.16;5039885;28;20064;-71
2022/04/02 08:19:12;;;;;;;1.35;0.85;;;;;;;21.51;30.12;101995.13;4998671;28;20045;-71
2022/04/02 08:21:39;;;;;;;1.17;0.85;;;;;;;21.44;30.53;101994.97;5037681;28;20045;-71
2022/04/02 08:24:04;;;;;;;1.42;1.33;;;;;;;21.31;30.92;102002.53;5031289;28;20122;-71
2022/04/02 08:26:56;;;;;;;0.88;0.88;;;;;;;21.29;30.80;102017.75;5009139;28;20525;-72
2022/04/02 08:29:38;;;;;;;1.58;1.10;;;;;;;21.17;31.02;102008.41;5043174;28;20157;-72
2022/04/02 08:32:21;;;;;;;1.08;0.80;;;;;;;21.17;31.09;102009.22;5026108;28;20506;-72
2022/04/02 08:35:06;;;;;;;0.63;0.63;;;;;;;21.14;31.28;102022.81;5003765;28;20217;-72
2022/04/02 08:37:51;;;;;;;2.08;0.93;;;;;;;21.10;31.30;102024.13;5014782;28;20041;-72
2022/04/02 08:40:55;;;;;;;1.00;0.90;;;;;;;21.06;31.33;102026.25;5038071;28;20438;-72
2022/04/02 08:43:44;;;;;;;0.60;0.60;;;;;;;21.06;31.46;102018.31;5032577;28;20034;-72
2022/04/02 08:46:32;;;;;;;2.42;1.20;;;;;;;21.24;31.10;102023.56;5003225;28;20051;-72
2022/04/02 08:49:07;;;;;;;2.22;0.65;;;;;;;21.57;30.76;102023.66;5040067;28;20513;-71
2022/04/02 08:51:43;;;;;;;0.60;0.60;;;;;;;21.79;30.57;102024.84;5007956;28;20857;-72
2022/04/02 08:54:28;;;;;;;0.82;0.80;;;;;;;21.72;30.70;102022.00;5034279;28;20140;-73
2022/04/02 08:57:06;;;;;;;1.35;1.15;;;;;;;21.61;30.43;102032.94;5002421;28;20702;-73
2022/04/02 08:59:40;;;;;;;1.45;0.80;;;;;;;21.45;30.86;102027.59;5036170;28;20336;-73
2022/04/02 09:02:24;;;;;;;0.98;0.85;;;;;;;21.27;31.55;102025.03;5011609;28;20033;-72
2022/04/02 09:04:53;;;;;;;0.95;0.85;;;;;;;21.26;31.33;102026.88;5040202;28;20670;-73
2022/04/02 09:07:54;;;;;;;0.75;0.60;;;;;;;21.21;31.41;102033.63;4992160;28;20556;-73
2022/04/02 09:10:57;;;;;;;1.15;1.02;;;;;;;21.12;31.38;102038.84;4968292;28;20056;-73
2022/04/02 09:14:19;;;;;;;1.77;0.90;;;;;;;21.11;31.48;102039.03;5008409;28;20044;-72
2022/04/02 09:16:57;;;;;;;1.50;0.80;;;;;;;21.11;31.34;102046.97;4975448;28;20038;-72
2022/04/02 09:19:22;;;;;;;1.08;0.93;;;;;;;21.09;31.40;102048.94;4945335;28;20091;-72
2022/04/02 09:22:07;;;;;;;1.17;0.90;;;;;;;21.21;31.27;102050.34;5013526;28;20048;-72
2022/04/02 09:25:06;;;;;;;1.95;0.90;;;;;;;21.48;30.81;102059.06;4995818;28;20049;-72
2022/04/02 09:28:07;;;;;;;1.13;0.98;;;;;;;21.85;30.23;102053.34;5034283;28;20037;-74
2022/04/02 09:31:04;;;;;;;0.75;0.57;;;;;;;21.99;30.18;102061.50;5035695;28;20045;-74
2022/04/02 09:34:07;;;;;;;1.23;0.85;;;;;;;21.90;30.09;102070.44;5027229;28;20546;-73
2022/04/02 09:36:47;;;;;;;1.80;0.95;;;;;;;21.75;30.53;102063.28;5034528;28;20073;-73
2022/04/02 09:39:40;;;;;;;1.75;0.98;;;;;;;21.44;30.93;102053.25;4994325;28;20033;-74
2022/04/02 09:42:21;;;;;;;1.38;1.10;;;;;;;21.44;31.01;102065.69;5036068;28;20118;-73
2022/04/02 09:44:46;;;;;;;2.10;0.95;;;;;;;21.40;31.09;102068.66;4999988;28;20441;-73
2022/04/02 09:47:18;;;;;;;0.90;0.80;;;;;;;21.32;31.25;102065.97;5039310;28;20771;-73
2022/04/02 09:50:09;;;;;;;1.10;0.88;;;;;;;21.29;31.36;102063.63;5010720;28;20829;-74
2022/04/02 09:52:44;;;;;;;1.42;1.08;;;;;;;21.25;31.28;102067.59;5034891;28;20044;-72
2022/04/02 09:55:16;;;;;;;1.08;0.90;;;;;;;21.24;31.47;102068.59;5005469;28;20037;-74
2022/04/02 09:58:09;;;;;;;0.70;0.60;;;;;;;21.21;31.27;102065.41;5036181;28;20153;-74
2022/04/02 10:00:48;;;;;;;1.48;0.52;;;;;;;21.17;31.35;102056.91;5018897;28;20047;-73
2022/04/02 10:03:32;;;;;;;1.20;0.73;;;;;;;21.34;30.92;102057.84;5032228;28;20349;-73
2022/04/02 10:06:15;;;;;;;1.35;0.80;;;;;;;21.87;30.31;102081.34;5005705;28;20079;-73
2022/04/02 10:09:06;;;;;;;0.95;0.75;;;;;;;22.22;29.72;102074.97;5035182;28;20095;-74
2022/04/02 10:11:34;;;;;;;1.55;0.82;;;;;;;22.24;29.73;102070.31;4998300;28;20681;-73
2022/04/02 10:14:04;;;;;;;0.80;0.70;;;;;;;22.18;29.95;102078.94;5035739;28;20122;-74
2022/04/02 10:16:31;;;;;;;2.10;1.08;;;;;;;22.08;29.96;102069.47;5027346;28;20479;-73
2022/04/02 10:19:06;;;;;;;0.85;0.80;;;;;;;21.95;30.33;102060.16;5020871;28;20738;-74
2022/04/02 10:21:35;;;;;;;1.25;0.75;;;;;;;21.88;30.34;102069.75;5025299;28;20297;-73
2022/04/02 10:24:19;;;;;;;1.13;0.93;;;;;;;21.77;30.41;102063.94;5029832;28;20507;-74
2022/04/02 10:26:57;;;;;;;1.17;1.00;;;;;;;21.60;30.77;102055.97;5009015;28;20045;-73
2022/04/02 10:30:03;;;;;;;0.80;0.80;;;;;;;21.49;30.86;102052.78;5015392;28;20836;-73
2022/04/02 10:32:47;;;;;;;1.45;0.60;;;;;;;21.29;30.96;102037.13;5025200;28;20029;-74
2022/04/02 10:35:13;;;;;;;0.75;0.75;;;;;;;21.39;31.28;102059.03;5039309;28;20037;-74
2022/04/02 10:37:52;;;;;;;1.60;0.85;;;;;;;21.35;31.35;102057.69;5012481;28;20059;-74
2022/04/02 10:40:19;;;;;;;1.05;0.70;;;;;;;21.34;31.26;102060.50;5039134;28;20033;-73
2022/04/02 10:43:02;;;;;;;0.60;0.60;;;;;;;21.35;31.04;102055.03;5005318;28;20249;-74
2022/04/02 10:45:29;;;;;;;1.00;0.88;;;;;;;21.41;30.98;102053.59;5023778;28;20391;-74
2022/04/02 10:47:54;;;;;;;1.05;0.70;;;;;;;21.54;31.22;102061.06;5030628;28;20032;-73
2022/04/02 10:50:22;;;;;;;1.65;1.02;;;;;;;21.53;31.01;102072.66;5005565;28;20689;-70
2022/04/02 10:52:49;;;;;;;1.15;0.88;;;;;;;21.48;31.22;102070.50;5061701;28;20594;-70
2022/04/02 10:55:17;;;;;;;0.77;0.77;;;;;;;21.34;31.33;102053.38;5007487;28;20781;-69
2022/04/02 10:57:44;;;;;;;0.80;0.68;;;;;;;21.42;31.19;102060.53;5033874;28;20106;-69
2022/04/02 11:00:11;;;;;;;0.60;0.60;;;;;;;21.39;30.91;102059.03;4985712;28;20104;-69
2022/04/02 11:02:43;;;;;;;0.85;0.85;;;;;;;21.39;30.96;102056.41;5037543;28;20562;-69
2022/04/02 11:05:10;;;;;;;0.95;0.65;;;;;;;21.49;31.04;102058.91;5005876;28;20061;-69
2022/04/02 11:07:40;;;;;;;0.60;0.60;;;;;;;21.51;31.08;102040.19;5035464;28;20336;-69
2022/04/02 11:10:08;;;;;;;1.75;0.65;;;;;;;21.61;30.60;102054.97;5000560;28;20029;-69
2022/04/02 11:12:41;;;;;;;2.88;1.00;;;;;;;21.50;30.68;102060.56;5030748;28;20037;-69
2022/04/02 11:15:22;;;;;;;0.80;0.80;;;;;;;21.41;30.68;102062.38;5006052;28;20599;-69
2022/04/02 11:17:53;;;;;;;1.08;0.82;;;;;;;21.24;30.96;102047.38;5034065;28;20754;-69
2022/04/02 11:20:23;;;;;;;1.08;0.98;;;;;;;21.25;31.21;102059.66;5037026;28;20124;-69
2022/04/02 11:22:52;;;;;;;2.03;1.02;;;;;;;21.33;31.21;102062.31;5002192;28;20518;-69
2022/04/02 11:25:24;;;;;;;1.30;0.90;;;;;;;21.60;30.50;102063.91;5035186;28;20114;-69
2022/04/02 11:27:55;;;;;;;1.08;0.98;;;;;;;21.61;30.64;102062.09;5007766;28;20043;-69
2022/04/02 11:30:22;;;;;;;1.50;1.13;;;;;;;21.57;30.88;102061.59;5028164;28;20041;-69
2022/04/02 11:32:50;;;;;;;1.85;1.10;;;;;;;21.46;31.04;102061.03;4991669;28;20049;-69
2022/04/02 11:35:24;;;;;;;1.25;0.90;;;;;;;21.40;31.02;102068.66;5035893;28;20060;-69
2022/04/02 11:38:02;;;;;;;1.63;1.10;;;;;;;21.40;31.02;102059.88;5005826;28;20072;-69
2022/04/02 11:40:29;;;;;;;1.25;0.90;;;;;;;21.42;30.72;102068.50;5031073;28;20098;-69
2022/04/02 11:43:00;;;;;;;1.58;0.77;;;;;;;21.42;30.98;102071.13;4999485;28;20041;-69
2022/04/02 11:45:26;;;;;;;1.33;1.23;;;;;;;21.49;30.79;102080.09;5030256;28;20037;-69